TAF Text Data
IDs:
Format:
Raw Decoded Include METAR

Data at: 0023 UTC 30 May 2020

TAF AMD PGUA 300000Z 3000/3024 13012KT 8000 -RA BKN007 OVC025 QNH2990INS
  BECMG 3011/3012 07015KT 9999 NSW SCT007 BKN025 QNH2993INS TX30/3004Z TN23/3018Z